Time;durP1;ratioP1;P1;durP2;ratioP2;P2;SDS_P1;SDS_P2;PMS_P1;PMS_P2;Temp;Humidity;BMP_temperature;BMP_pressure;BME280_temperature;BME280_humidity;BME280_pressure;Samples;Min_cycle;Max_cycle;Signal;HPM_P1;HPM_P2
2023/03/07 00:00:32;;;;;;;;;;;;;;;;;;5014064;28;19910;-25
2023/03/07 00:02:58;;;;;;;;;;;;;;;;;;5014756;28;19949;-25
2023/03/07 00:05:24;;;;;;;;;;;;;;;;;;5015025;28;19909;-25
2023/03/07 00:07:50;;;;;;;;;;;;;;;;;;5015232;28;19984;-25
2023/03/07 00:10:16;;;;;;;;;;;;;;;;;;5014814;28;19909;-25
2023/03/07 00:12:42;;;;;;;;;;;;;;;;;;5014844;28;19971;-25
2023/03/07 00:15:09;;;;;;;;;;;;;;;;;;5015213;28;19921;-26
2023/03/07 00:17:35;;;;;;;;;;;;;;;;;;5014861;28;19910;-25
2023/03/07 00:20:00;;;;;;;;;;;;;;;;;;5013805;28;20264;-26
2023/03/07 00:22:26;;;;;;;;;;;;;;;;;;5014764;28;19913;-25
2023/03/07 00:24:52;;;;;;;;;;;;;;;;;;5014771;28;19909;-25
2023/03/07 00:27:18;;;;;;;;;;;;;;;;;;5014747;28;20028;-26
2023/03/07 00:29:44;;;;;;;;;;;;;;;;;;5015035;28;19910;-28
2023/03/07 00:32:10;;;;;;;;;;;;;;;;;;5014632;28;20004;-23
2023/03/07 00:34:36;;;;;;;;;;;;;;;;;;5013677;28;19932;-24
2023/03/07 00:37:02;;;;;;;;;;;;;;;;;;5014614;28;19909;-23
2023/03/07 00:39:28;;;;;;;;;;;;;;;;;;5014590;28;19913;-26
2023/03/07 00:41:54;;;;;;;;;;;;;;;;;;5014483;28;19909;-23
2023/03/07 00:44:21;;;;;;;;;;;;;;;;;;5014590;28;19909;-23
2023/03/07 00:46:47;;;;;;;;;;;;;;;;;;5014535;28;19921;-23
2023/03/07 00:49:13;;;;;;;;;;;;;;;;;;5014828;28;19913;-24
2023/03/07 00:51:39;;;;;;;;;;;;;;;;;;5014543;28;20011;-24
2023/03/07 00:54:05;;;;;;;;;;;;;;;;;;5014417;28;20072;-24
2023/03/07 00:56:31;;;;;;;;;;;;;;;;;;5014769;28;19921;-24
2023/03/07 00:58:57;;;;;;;;;;;;;;;;;;5013371;28;19921;-23
2023/03/07 01:01:23;;;;;;;;;;;;;;;;;;5014459;28;19917;-23
2023/03/07 01:03:49;;;;;;;;;;;;;;;;;;5014130;28;19921;-23
2023/03/07 01:06:14;;;;;;;;;;;;;;;;;;5014312;28;19916;-23
2023/03/07 01:08:40;;;;;;;;;;;;;;;;;;5014634;28;20008;-24
2023/03/07 01:11:06;;;;;;;;;;;;;;;;;;5014355;28;19909;-23
2023/03/07 01:13:32;;;;;;;;;;;;;;;;;;5014295;28;19910;-23
2023/03/07 01:15:58;;;;;;;;;;;;;;;;;;5014222;28;19920;-23
2023/03/07 01:18:24;;;;;;;;;;;;;;;;;;5013220;28;19943;-24
2023/03/07 01:20:50;;;;;;;;;;;;;;;;;;5014448;28;19910;-24
2023/03/07 01:23:16;;;;;;;;;;;;;;;;;;5016735;28;19914;-24
2023/03/07 01:25:42;;;;;;;;;;;;;;;;;;5017679;28;19959;-24
2023/03/07 01:28:08;;;;;;;;;;;;;;;;;;5018368;28;19909;-24
2023/03/07 01:30:34;;;;;;;;;;;;;;;;;;5017661;28;19920;-24
2023/03/07 01:33:00;;;;;;;;;;;;;;;;;;5017487;28;19927;-23
2023/03/07 01:35:26;;;;;;;;;;;;;;;;;;5017813;28;19910;-24
2023/03/07 01:37:52;;;;;;;;;;;;;;;;;;5017541;28;20368;-23
2023/03/07 01:40:17;;;;;;;;;;;;;;;;;;5017420;28;20233;-23
2023/03/07 01:42:43;;;;;;;;;;;;;;;;;;5017613;28;19917;-24
2023/03/07 01:45:09;;;;;;;;;;;;;;;;;;5017560;28;19920;-24
2023/03/07 01:47:35;;;;;;;;;;;;;;;;;;5017611;28;20008;-24
2023/03/07 01:50:02;;;;;;;;;;;;;;;;;;5017241;28;19909;-23
2023/03/07 01:52:28;;;;;;;;;;;;;;;;;;5017070;28;19988;-23
2023/03/07 01:54:54;;;;;;;;;;;;;;;;;;5017087;28;19960;-23
2023/03/07 01:57:20;;;;;;;;;;;;;;;;;;5017373;28;19910;-23
2023/03/07 01:59:46;;;;;;;;;;;;;;;;;;5016057;28;19921;-23
2023/03/07 02:02:12;;;;;;;;;;;;;;;;;;5016980;28;20008;-24
2023/03/07 02:04:38;;;;;;;;;;;;;;;;;;5016846;28;19928;-24
2023/03/07 02:07:04;;;;;;;;;;;;;;;;;;5017171;28;19913;-24
2023/03/07 02:09:30;;;;;;;;;;;;;;;;;;5015948;28;20004;-23
2023/03/07 02:11:56;;;;;;;;;;;;;;;;;;5017083;28;19914;-24
2023/03/07 02:14:21;;;;;;;;;;;;;;;;;;5016739;28;19909;-23
2023/03/07 02:16:47;;;;;;;;;;;;;;;;;;5016771;28;19960;-24
2023/03/07 02:19:13;;;;;;;;;;;;;;;;;;5016626;28;19941;-23
2023/03/07 02:21:39;;;;;;;;;;;;;;;;;;5016674;28;19921;-23
2023/03/07 02:24:05;;;;;;;;;;;;;;;;;;5016523;28;20272;-23
2023/03/07 02:26:31;;;;;;;;;;;;;;;;;;5016829;28;19968;-23
2023/03/07 02:28:57;;;;;;;;;;;;;;;;;;5016771;28;20008;-23
2023/03/07 02:31:23;;;;;;;;;;;;;;;;;;5016468;28;19913;-23
2023/03/07 02:33:49;;;;;;;;;;;;;;;;;;5015265;28;19913;-24
2023/03/07 02:36:15;;;;;;;;;;;;;;;;;;5016637;28;19956;-23
2023/03/07 02:38:41;;;;;;;;;;;;;;;;;;5016004;28;19953;-23
2023/03/07 02:41:07;;;;;;;;;;;;;;;;;;5015341;28;19910;-23
2023/03/07 02:43:33;;;;;;;;;;;;;;;;;;5016452;28;19914;-23
2023/03/07 02:45:59;;;;;;;;;;;;;;;;;;5016195;28;19910;-23
2023/03/07 02:48:25;;;;;;;;;;;;;;;;;;5016461;28;20075;-23
2023/03/07 02:50:51;;;;;;;;;;;;;;;;;;5016152;28;20005;-23
2023/03/07 02:53:16;;;;;;;;;;;;;;;;;;5016110;28;20012;-23
2023/03/07 02:55:42;;;;;;;;;;;;;;;;;;5016043;28;19910;-24
2023/03/07 02:58:08;;;;;;;;;;;;;;;;;;5015958;28;19909;-23
2023/03/07 03:00:35;;;;;;;;;;;;;;;;;;5015811;28;19920;-24
2023/03/07 03:03:01;;;;;;;;;;;;;;;;;;5015612;28;20348;-24
2023/03/07 03:05:27;;;;;;;;;;;;;;;;;;5015821;28;19909;-23
2023/03/07 03:07:53;;;;;;;;;;;;;;;;;;5015801;28;20000;-24
2023/03/07 03:10:19;;;;;;;;;;;;;;;;;;5015783;28;19910;-24
2023/03/07 03:12:46;;;;;;;;;;;;;;;;;;5015884;28;20340;-24
2023/03/07 03:15:12;;;;;;;;;;;;;;;;;;5015685;28;19920;-24
2023/03/07 03:17:38;;;;;;;;;;;;;;;;;;5015897;28;19909;-24
2023/03/07 03:20:08;;;;;;;;;;;;;;;;;;5015498;28;20206;-23
2023/03/07 03:22:34;;;;;;;;;;;;;;;;;;5015756;28;19925;-23
2023/03/07 03:25:00;;;;;;;;;;;;;;;;;;5015837;28;19933;-23
2023/03/07 03:27:26;;;;;;;;;;;;;;;;;;5015556;28;19960;-23
2023/03/07 03:29:52;;;;;;;;;;;;;;;;;;5015720;28;19921;-23
2023/03/07 03:32:17;;;;;;;;;;;;;;;;;;5015371;28;20352;-23
2023/03/07 03:34:43;;;;;;;;;;;;;;;;;;5015317;28;19920;-23
2023/03/07 03:37:09;;;;;;;;;;;;;;;;;;5015246;28;19910;-23
2023/03/07 03:39:36;;;;;;;;;;;;;;;;;;5014230;28;19917;-23
2023/03/07 03:42:02;;;;;;;;;;;;;;;;;;5015179;28;19913;-23
2023/03/07 03:44:28;;;;;;;;;;;;;;;;;;5014936;28;19909;-23
2023/03/07 03:46:54;;;;;;;;;;;;;;;;;;5014141;28;19921;-24
2023/03/07 03:49:20;;;;;;;;;;;;;;;;;;5015176;28;19910;-23
2023/03/07 03:51:46;;;;;;;;;;;;;;;;;;5015036;28;20232;-24
2023/03/07 03:54:12;;;;;;;;;;;;;;;;;;5015096;28;19935;-24
2023/03/07 03:56:38;;;;;;;;;;;;;;;;;;5015128;28;19920;-24
2023/03/07 03:59:04;;;;;;;;;;;;;;;;;;5015229;28;19917;-24
2023/03/07 04:01:30;;;;;;;;;;;;;;;;;;5015063;28;20245;-24
2023/03/07 04:03:56;;;;;;;;;;;;;;;;;;5014782;28;19952;-24
2023/03/07 04:06:22;;;;;;;;;;;;;;;;;;5015249;28;20400;-24
2023/03/07 04:08:48;;;;;;;;;;;;;;;;;;5014933;28;19909;-24
2023/03/07 04:11:14;;;;;;;;;;;;;;;;;;5014939;28;19914;-24
2023/03/07 04:13:42;;;;;;;;;;;;;;;;;;5014002;28;21204;-24
2023/03/07 04:16:11;;;;;;;;;;;;;;;;;;5015092;28;19909;-24
2023/03/07 04:18:37;;;;;;;;;;;;;;;;;;5014692;28;20280;-24
2023/03/07 04:21:04;;;;;;;;;;;;;;;;;;5015026;28;20264;-24
2023/03/07 04:23:30;;;;;;;;;;;;;;;;;;5014619;28;19971;-24
2023/03/07 04:25:56;;;;;;;;;;;;;;;;;;5014745;28;19909;-24
2023/03/07 04:28:22;;;;;;;;;;;;;;;;;;5014698;28;19909;-24
2023/03/07 04:30:48;;;;;;;;;;;;;;;;;;5014933;28;20299;-24
2023/03/07 04:33:14;;;;;;;;;;;;;;;;;;5014523;28;20008;-24
2023/03/07 04:35:40;;;;;;;;;;;;;;;;;;5015096;28;19937;-24
2023/03/07 04:38:06;;;;;;;;;;;;;;;;;;5014565;28;19921;-24
2023/03/07 04:40:32;;;;;;;;;;;;;;;;;;5014686;28;19924;-24
2023/03/07 04:42:58;;;;;;;;;;;;;;;;;;5014376;28;20034;-24
2023/03/07 04:45:24;;;;;;;;;;;;;;;;;;5015108;28;19913;-24
2023/03/07 04:47:50;;;;;;;;;;;;;;;;;;5013328;28;20333;-24
2023/03/07 04:50:16;;;;;;;;;;;;;;;;;;5013290;28;19975;-24
2023/03/07 04:52:42;;;;;;;;;;;;;;;;;;5014297;28;20313;-24
2023/03/07 04:55:08;;;;;;;;;;;;;;;;;;5014299;28;19920;-24
2023/03/07 04:57:34;;;;;;;;;;;;;;;;;;5015898;28;20403;-24
2023/03/07 05:00:00;;;;;;;;;;;;;;;;;;5017980;28;19928;-24
2023/03/07 05:02:26;;;;;;;;;;;;;;;;;;5017558;28;19992;-24
2023/03/07 05:04:52;;;;;;;;;;;;;;;;;;5016884;28;20004;-24
2023/03/07 05:07:18;;;;;;;;;;;;;;;;;;5017840;28;19925;-23
2023/03/07 05:09:44;;;;;;;;;;;;;;;;;;5017607;28;20301;-24
2023/03/07 05:12:10;;;;;;;;;;;;;;;;;;5017696;28;20290;-25
2023/03/07 05:14:36;;;;;;;;;;;;;;;;;;5017389;28;19909;-23
2023/03/07 05:17:02;;;;;;;;;;;;;;;;;;5017818;28;19925;-24
2023/03/07 05:19:29;;;;;;;;;;;;;;;;;;5017465;28;19971;-24
2023/03/07 05:21:55;;;;;;;;;;;;;;;;;;5016346;28;20229;-24
2023/03/07 05:24:21;;;;;;;;;;;;;;;;;;5017422;28;19937;-24
2023/03/07 05:26:47;;;;;;;;;;;;;;;;;;5017128;28;19910;-24
2023/03/07 05:29:13;;;;;;;;;;;;;;;;;;5017192;28;19910;-24
2023/03/07 05:31:39;;;;;;;;;;;;;;;;;;5017133;28;19936;-24
2023/03/07 05:34:05;;;;;;;;;;;;;;;;;;5017007;28;19909;-24
2023/03/07 05:36:31;;;;;;;;;;;;;;;;;;5017255;28;19909;-24
2023/03/07 05:38:57;;;;;;;;;;;;;;;;;;5017134;28;19987;-24
2023/03/07 05:41:23;;;;;;;;;;;;;;;;;;5016365;28;20419;-24
2023/03/07 05:43:49;;;;;;;;;;;;;;;;;;5017043;28;20010;-24
2023/03/07 05:46:15;;;;;;;;;;;;;;;;;;5015931;28;19921;-24
2023/03/07 05:48:41;;;;;;;;;;;;;;;;;;5017087;28;20399;-24
2023/03/07 05:51:07;;;;;;;;;;;;;;;;;;5016785;28;20264;-25
2023/03/07 05:53:33;;;;;;;;;;;;;;;;;;5016661;28;20013;-24
2023/03/07 05:55:59;;;;;;;;;;;;;;;;;;5016613;28;19909;-24
2023/03/07 05:58:25;;;;;;;;;;;;;;;;;;5016586;28;20012;-24
2023/03/07 06:00:51;;;;;;;;;;;;;;;;;;5015543;28;19953;-24
2023/03/07 06:03:17;;;;;;;;;;;;;;;;;;5016305;28;19983;-24
2023/03/07 06:05:43;;;;;;;;;;;;;;;;;;5015533;28;20012;-24
2023/03/07 06:08:10;;;;;;;;;;;;;;;;;;5015418;28;20016;-24
2023/03/07 06:10:38;;;;;;;;;;;;;;;;;;5016641;28;19913;-24
2023/03/07 06:13:04;;;;;;;;;;;;;;;;;;5016480;28;19910;-25
2023/03/07 06:15:30;;;;;;;;;;;;;;;;;;5016268;28;20309;-25
2023/03/07 06:17:56;;;;;;;;;;;;;;;;;;5016373;28;20336;-24
2023/03/07 06:20:22;;;;;;;;;;;;;;;;;;5016331;28;20388;-24
2023/03/07 06:22:48;;;;;;;;;;;;;;;;;;5016060;28;20349;-24
2023/03/07 06:25:15;;;;;;;;;;;;;;;;;;5016452;28;20009;-24
2023/03/07 06:27:41;;;;;;;;;;;;;;;;;;5016169;28;20004;-24
2023/03/07 06:30:08;;;;;;;;;;;;;;;;;;5016130;28;19956;-24
2023/03/07 06:32:34;;;;;;;;;;;;;;;;;;5016170;28;19910;-25
2023/03/07 06:35:00;;;;;;;;;;;;;;;;;;5015726;28;19920;-25
2023/03/07 06:37:26;;;;;;;;;;;;;;;;;;5015585;28;20018;-25
2023/03/07 06:39:52;;;;;;;;;;;;;;;;;;5015570;28;19995;-25
2023/03/07 06:42:18;;;;;;;;;;;;;;;;;;5015415;28;19959;-26
2023/03/07 06:44:44;;;;;;;;;;;;;;;;;;5015633;28;20001;-25
2023/03/07 06:47:10;;;;;;;;;;;;;;;;;;5015589;28;19910;-25
2023/03/07 06:49:36;;;;;;;;;;;;;;;;;;5015816;28;19945;-25
2023/03/07 06:52:02;;;;;;;;;;;;;;;;;;5015369;28;19964;-25
2023/03/07 06:54:28;;;;;;;;;;;;;;;;;;5015452;28;19920;-25
2023/03/07 06:56:54;;;;;;;;;;;;;;;;;;5015717;28;19914;-25
2023/03/07 06:59:20;;;;;;;;;;;;;;;;;;5015321;28;20342;-25
2023/03/07 07:01:47;;;;;;;;;;;;;;;;;;5015207;28;19909;-25
2023/03/07 07:04:13;;;;;;;;;;;;;;;;;;5015206;28;19967;-25
2023/03/07 07:06:39;;;;;;;;;;;;;;;;;;5015327;28;20327;-26
2023/03/07 07:09:05;;;;;;;;;;;;;;;;;;5014016;28;19909;-25
2023/03/07 07:11:31;;;;;;;;;;;;;;;;;;5015015;28;20000;-26
2023/03/07 07:13:57;;;;;;;;;;;;;;;;;;5014409;28;19909;-25
2023/03/07 07:16:23;;;;;;;;;;;;;;;;;;5014509;28;20008;-25
2023/03/07 07:18:49;;;;;;;;;;;;;;;;;;5014400;28;19964;-25
2023/03/07 07:21:14;;;;;;;;;;;;;;;;;;5013892;28;19919;-25
2023/03/07 07:23:40;;;;;;;;;;;;;;;;;;5014324;28;20394;-25
2023/03/07 07:26:07;;;;;;;;;;;;;;;;;;5014385;28;19996;-25
2023/03/07 07:28:33;;;;;;;;;;;;;;;;;;5014365;28;19952;-25
2023/03/07 07:30:59;;;;;;;;;;;;;;;;;;5014329;28;19909;-25
2023/03/07 07:33:25;;;;;;;;;;;;;;;;;;5012915;28;19963;-26
2023/03/07 07:35:51;;;;;;;;;;;;;;;;;;5013147;28;19925;-25
2023/03/07 07:38:17;;;;;;;;;;;;;;;;;;5014674;28;20346;-26
2023/03/07 07:40:44;;;;;;;;;;;;;;;;;;5014660;28;20317;-23
2023/03/07 07:43:10;;;;;;;;;;;;;;;;;;5014995;28;20338;-23
2023/03/07 07:45:36;;;;;;;;;;;;;;;;;;5014187;28;19910;-23
2023/03/07 07:48:02;;;;;;;;;;;;;;;;;;5014751;28;19991;-28
2023/03/07 07:50:28;;;;;;;;;;;;;;;;;;5013710;28;19913;-23
2023/03/07 07:52:54;;;;;;;;;;;;;;;;;;5013785;28;19913;-23
2023/03/07 07:55:20;;;;;;;;;;;;;;;;;;5014655;28;20332;-23
2023/03/07 07:57:46;;;;;;;;;;;;;;;;;;5014869;28;19920;-23
2023/03/07 08:00:12;;;;;;;;;;;;;;;;;;5014550;28;20001;-24
2023/03/07 08:02:38;;;;;;;;;;;;;;;;;;5014212;28;19920;-24
2023/03/07 08:05:05;;;;;;;;;;;;;;;;;;5013466;28;20007;-23
2023/03/07 08:07:31;;;;;;;;;;;;;;;;;;5014299;28;19910;-23
2023/03/07 08:09:57;;;;;;;;;;;;;;;;;;5014137;28;19967;-24
2023/03/07 08:12:23;;;;;;;;;;;;;;;;;;5014090;28;19955;-23
2023/03/07 08:14:49;;;;;;;;;;;;;;;;;;5014201;28;20016;-23
2023/03/07 08:17:15;;;;;;;;;;;;;;;;;;5014094;28;20067;-23
2023/03/07 08:19:40;;;;;;;;;;;;;;;;;;5014451;28;19913;-23
2023/03/07 08:22:06;;;;;;;;;;;;;;;;;;5014131;28;19910;-24
2023/03/07 08:24:34;;;;;;;;;;;;;;;;;;5013192;28;19920;-23
2023/03/07 08:27:00;;;;;;;;;;;;;;;;;;5014113;28;19909;-23
2023/03/07 08:29:26;;;;;;;;;;;;;;;;;;5014157;28;20008;-24
2023/03/07 08:31:53;;;;;;;;;;;;;;;;;;5016258;28;19921;-24
2023/03/07 08:34:19;;;;;;;;;;;;;;;;;;5017945;28;19910;-24
2023/03/07 08:36:45;;;;;;;;;;;;;;;;;;5016721;28;19936;-23
2023/03/07 08:39:11;;;;;;;;;;;;;;;;;;5018154;28;20000;-23
2023/03/07 08:41:37;;;;;;;;;;;;;;;;;;5017917;28;19910;-23
2023/03/07 08:44:03;;;;;;;;;;;;;;;;;;5016700;28;19917;-25
2023/03/07 08:46:29;;;;;;;;;;;;;;;;;;5016702;28;19909;-24
2023/03/07 08:48:55;;;;;;;;;;;;;;;;;;5017697;28;19910;-24
2023/03/07 08:51:21;;;;;;;;;;;;;;;;;;5016763;28;19910;-24
2023/03/07 08:53:47;;;;;;;;;;;;;;;;;;5017965;28;19909;-25
2023/03/07 08:56:13;;;;;;;;;;;;;;;;;;5016783;28;19914;-24
2023/03/07 08:58:39;;;;;;;;;;;;;;;;;;5017657;28;19977;-24
2023/03/07 09:01:05;;;;;;;;;;;;;;;;;;5017586;28;19914;-25
2023/03/07 09:03:31;;;;;;;;;;;;;;;;;;5018044;28;19964;-24
2023/03/07 09:05:57;;;;;;;;;;;;;;;;;;5016540;28;19917;-23
2023/03/07 09:08:22;;;;;;;;;;;;;;;;;;5017187;28;20355;-23
2023/03/07 09:10:48;;;;;;;;;;;;;;;;;;5017547;28;19910;-24
2023/03/07 09:13:15;;;;;;;;;;;;;;;;;;5017367;28;19976;-24
2023/03/07 09:15:41;;;;;;;;;;;;;;;;;;5017478;28;19948;-24
2023/03/07 09:18:07;;;;;;;;;;;;;;;;;;5017585;28;19913;-24
2023/03/07 09:20:33;;;;;;;;;;;;;;;;;;5016939;28;19917;-24
2023/03/07 09:22:59;;;;;;;;;;;;;;;;;;5016866;28;19909;-24
2023/03/07 09:25:25;;;;;;;;;;;;;;;;;;5017002;28;19910;-24
2023/03/07 09:27:51;;;;;;;;;;;;;;;;;;5017100;28;19925;-24
2023/03/07 09:30:17;;;;;;;;;;;;;;;;;;5017031;28;19909;-24
2023/03/07 09:32:43;;;;;;;;;;;;;;;;;;5016935;28;19910;-24
2023/03/07 09:35:09;;;;;;;;;;;;;;;;;;5017245;28;19920;-24
2023/03/07 09:37:35;;;;;;;;;;;;;;;;;;5015879;28;19909;-24
2023/03/07 09:40:04;;;;;;;;;;;;;;;;;;5017019;28;19913;-24
2023/03/07 09:42:30;;;;;;;;;;;;;;;;;;5016090;28;20008;-24
2023/03/07 09:44:56;;;;;;;;;;;;;;;;;;5014851;28;20312;-24
2023/03/07 09:47:22;;;;;;;;;;;;;;;;;;5015971;28;20288;-24
2023/03/07 09:49:48;;;;;;;;;;;;;;;;;;5014873;28;19932;-24
2023/03/07 09:52:14;;;;;;;;;;;;;;;;;;5015817;28;19909;-24
2023/03/07 09:54:40;;;;;;;;;;;;;;;;;;5016060;28;20004;-24
2023/03/07 09:57:06;;;;;;;;;;;;;;;;;;5015843;28;20360;-24
2023/03/07 09:59:32;;;;;;;;;;;;;;;;;;5014457;28;19914;-24
2023/03/07 10:01:58;;;;;;;;;;;;;;;;;;5016049;28;19910;-34
2023/03/07 10:04:25;;;;;;;;;;;;;;;;;;5015841;28;19925;-24
2023/03/07 10:06:51;;;;;;;;;;;;;;;;;;5015969;28;20220;-24
2023/03/07 10:09:17;;;;;;;;;;;;;;;;;;5015753;28;19909;-24
2023/03/07 10:11:43;;;;;;;;;;;;;;;;;;5015916;28;19910;-24
2023/03/07 10:14:09;;;;;;;;;;;;;;;;;;5015524;28;19928;-24
2023/03/07 10:16:35;;;;;;;;;;;;;;;;;;5015653;28;19909;-24
2023/03/07 10:19:01;;;;;;;;;;;;;;;;;;5014562;28;20054;-23
2023/03/07 10:21:27;;;;;;;;;;;;;;;;;;5014936;28;20004;-24
2023/03/07 10:23:53;;;;;;;;;;;;;;;;;;5016151;28;19968;-24
2023/03/07 10:26:19;;;;;;;;;;;;;;;;;;5016518;28;19914;-24
2023/03/07 10:28:45;;;;;;;;;;;;;;;;;;5015825;28;19909;-24
2023/03/07 10:31:11;;;;;;;;;;;;;;;;;;5016029;28;19910;-24
2023/03/07 10:33:37;;;;;;;;;;;;;;;;;;5014834;28;19992;-24
2023/03/07 10:36:03;;;;;;;;;;;;;;;;;;5014795;28;20343;-24
2023/03/07 10:38:29;;;;;;;;;;;;;;;;;;5015901;28;20008;-24
2023/03/07 10:40:54;;;;;;;;;;;;;;;;;;5015669;28;20267;-24
2023/03/07 10:43:20;;;;;;;;;;;;;;;;;;5014568;28;20008;-25
2023/03/07 10:45:46;;;;;;;;;;;;;;;;;;5015919;28;19917;-24
2023/03/07 10:48:12;;;;;;;;;;;;;;;;;;5015461;28;19917;-24
2023/03/07 10:50:39;;;;;;;;;;;;;;;;;;5015449;28;19910;-25
2023/03/07 10:53:05;;;;;;;;;;;;;;;;;;5015275;28;20280;-24
2023/03/07 10:55:31;;;;;;;;;;;;;;;;;;5014614;28;19971;-24
2023/03/07 10:57:57;;;;;;;;;;;;;;;;;;5015466;28;19917;-24
2023/03/07 11:00:23;;;;;;;;;;;;;;;;;;5015498;28;19920;-24
2023/03/07 11:02:49;;;;;;;;;;;;;;;;;;5014981;28;19988;-24
2023/03/07 11:05:15;;;;;;;;;;;;;;;;;;5015360;28;19909;-24
2023/03/07 11:07:41;;;;;;;;;;;;;;;;;;5015205;28;19909;-24
2023/03/07 11:10:07;;;;;;;;;;;;;;;;;;5015309;28;19909;-24
2023/03/07 11:12:33;;;;;;;;;;;;;;;;;;5015010;28;20340;-24
2023/03/07 11:14:59;;;;;;;;;;;;;;;;;;5014949;28;19909;-24
2023/03/07 11:17:33;;;;;;;;;;;;;;;;;;5092344;27;20238;-26
2023/03/07 11:19:59;;;;;;;;;;;;;;;;;;5091689;28;19999;-27
2023/03/07 11:22:25;;;;;;;;;;;;;;;;;;5091747;28;19990;-24
2023/03/07 11:24:51;;;;;;;;;;;;;;;;;;5091673;28;20342;-29
2023/03/07 11:27:17;;;;;;;;;;;;;;;;;;5090481;28;20012;-24
2023/03/07 11:29:43;;;;;;;;;;;;;;;;;;5091526;28;19920;-27
2023/03/07 11:32:09;;;;;;;;;;;;;;;;;;5091316;28;19908;-27
2023/03/07 11:34:35;;;;;;;;;;;;;;;;;;5091642;28;19912;-28
2023/03/07 11:37:01;;;;;;;;;;;;;;;;;;5091089;28;19920;-27
2023/03/07 11:39:27;;;;;;;;;;;;;;;;;;5091313;28;19909;-26
2023/03/07 11:41:53;;;;;;;;;;;;;;;;;;5091100;28;19946;-25
2023/03/07 11:44:19;;;;;;;;;;;;;;;;;;5091168;28;19916;-30
2023/03/07 11:46:45;;;;;;;;;;;;;;;;;;5091033;28;19930;-25
2023/03/07 11:49:11;;;;;;;;;;;;;;;;;;5091303;28;20014;-29
2023/03/07 11:51:37;;;;;;;;;;;;;;;;;;5091077;28;19912;-27
2023/03/07 11:54:03;;;;;;;;;;;;;;;;;;5090832;28;19922;-29
2023/03/07 11:56:31;;;;;;;;;;;;;;;;;;5090587;28;19923;-26
2023/03/07 11:58:57;;;;;;;;;;;;;;;;;;5090464;28;19970;-24
2023/03/07 12:01:23;;;;;;;;;;;;;;;;;;5090258;28;20319;-30
2023/03/07 12:03:49;;;;;;;;;;;;;;;;;;5090101;28;19909;-29
2023/03/07 12:06:15;;;;;;;;;;;;;;;;;;5090278;28;19912;-27
2023/03/07 12:08:41;;;;;;;;;;;;;;;;;;5089987;28;20012;-26
2023/03/07 12:11:07;;;;;;;;;;;;;;;;;;5089016;28;19919;-26
2023/03/07 12:13:33;;;;;;;;;;;;;;;;;;5089989;28;19908;-27
2023/03/07 12:15:59;;;;;;;;;;;;;;;;;;5097413;28;19972;-30
2023/03/07 12:18:25;;;;;;;;;;;;;;;;;;5110188;28;19912;-29
2023/03/07 12:20:50;;;;;;;;;;;;;;;;;;5109442;28;19991;-25
2023/03/07 12:23:16;;;;;;;;;;;;;;;;;;5111004;28;19919;-30
2023/03/07 12:25:42;;;;;;;;;;;;;;;;;;5110694;28;20211;-25
2023/03/07 12:28:08;;;;;;;;;;;;;;;;;;5101359;28;19973;-26
2023/03/07 12:30:34;;;;;;;;;;;;;;;;;;5096897;28;19912;-30
2023/03/07 12:33:00;;;;;;;;;;;;;;;;;;5097064;28;19965;-26
2023/03/07 12:35:27;;;;;;;;;;;;;;;;;;5095878;28;19916;-26
2023/03/07 12:37:53;;;;;;;;;;;;;;;;;;5097096;28;19946;-30
2023/03/07 12:40:19;;;;;;;;;;;;;;;;;;5096702;28;19965;-26
2023/03/07 12:42:45;;;;;;;;;;;;;;;;;;5096620;28;19916;-26
2023/03/07 12:45:11;;;;;;;;;;;;;;;;;;5096946;28;19919;-27
2023/03/07 12:47:37;;;;;;;;;;;;;;;;;;5096677;28;19908;-27
2023/03/07 12:50:03;;;;;;;;;;;;;;;;;;5096903;28;20369;-26
2023/03/07 12:52:29;;;;;;;;;;;;;;;;;;5095462;28;20071;-26
2023/03/07 12:54:55;;;;;;;;;;;;;;;;;;5096752;28;19919;-27
2023/03/07 12:57:21;;;;;;;;;;;;;;;;;;5096440;28;19919;-24
2023/03/07 12:59:49;;;;;;;;;;;;;;;;;;5096658;28;20005;-26
2023/03/07 13:02:15;;;;;;;;;;;;;;;;;;5096255;28;19915;-24
2023/03/07 13:04:42;;;;;;;;;;;;;;;;;;5096383;28;19909;-27
2023/03/07 13:07:08;;;;;;;;;;;;;;;;;;5096383;28;19916;-23
2023/03/07 13:09:34;;;;;;;;;;;;;;;;;;5096082;28;19915;-25
2023/03/07 13:12:00;;;;;;;;;;;;;;;;;;5096167;28;19908;-26
2023/03/07 13:14:26;;;;;;;;;;;;;;;;;;5095978;28;19982;-27
2023/03/07 13:16:53;;;;;;;;;;;;;;;;;;5095198;28;19920;-32
2023/03/07 13:19:19;;;;;;;;;;;;;;;;;;5095816;28;20242;-26
2023/03/07 13:21:45;;;;;;;;;;;;;;;;;;5095573;28;19920;-27
2023/03/07 13:24:11;;;;;;;;;;;;;;;;;;5095820;28;19939;-22
2023/03/07 13:26:37;;;;;;;;;;;;;;;;;;5095933;28;19909;-27
2023/03/07 13:29:03;;;;;;;;;;;;;;;;;;5096106;28;19908;-27
2023/03/07 13:31:29;;;;;;;;;;;;;;;;;;5096409;28;20019;-27
2023/03/07 13:33:55;;;;;;;;;;;;;;;;;;5095859;28;19912;-24
2023/03/07 13:36:21;;;;;;;;;;;;;;;;;;5094530;28;19916;-25
2023/03/07 13:38:47;;;;;;;;;;;;;;;;;;5095249;28;19930;-25
2023/03/07 13:41:13;;;;;;;;;;;;;;;;;;5095607;28;19908;-29
2023/03/07 13:43:39;;;;;;;;;;;;;;;;;;5095929;28;19915;-30
2023/03/07 13:46:05;;;;;;;;;;;;;;;;;;5095861;28;20373;-29
2023/03/07 13:48:31;;;;;;;;;;;;;;;;;;5095399;28;19908;-31
2023/03/07 13:50:57;;;;;;;;;;;;;;;;;;5095392;28;20273;-27
2023/03/07 13:53:23;;;;;;;;;;;;;;;;;;5095492;28;19935;-25
2023/03/07 13:55:51;;;;;;;;;;;;;;;;;;5094845;28;19912;-26
2023/03/07 13:58:17;;;;;;;;;;;;;;;;;;5095830;28;20251;-28
2023/03/07 14:00:43;;;;;;;;;;;;;;;;;;5094386;28;20011;-24
2023/03/07 14:03:09;;;;;;;;;;;;;;;;;;5095208;28;19931;-28
2023/03/07 14:05:35;;;;;;;;;;;;;;;;;;5095267;28;19913;-32
2023/03/07 14:08:01;;;;;;;;;;;;;;;;;;5095356;28;19908;-27
2023/03/07 14:10:27;;;;;;;;;;;;;;;;;;5095437;28;19918;-25
2023/03/07 14:12:55;;;;;;;;;;;;;;;;;;5095491;28;19908;-31
2023/03/07 14:15:21;;;;;;;;;;;;;;;;;;5094914;28;19965;-27
2023/03/07 14:17:52;;;;;;;;;;;;;;;;;;5095603;28;19911;-29
2023/03/07 14:20:18;;;;;;;;;;;;;;;;;;5095068;28;19908;-27
2023/03/07 14:22:44;;;;;;;;;;;;;;;;;;5095225;28;19908;-26
2023/03/07 14:25:10;;;;;;;;;;;;;;;;;;5095160;28;20003;-29
2023/03/07 14:27:36;;;;;;;;;;;;;;;;;;5095065;28;19919;-34
2023/03/07 14:30:02;;;;;;;;;;;;;;;;;;5094839;28;20064;-27
2023/03/07 14:32:28;;;;;;;;;;;;;;;;;;5094796;28;19908;-28
2023/03/07 14:34:54;;;;;;;;;;;;;;;;;;5094947;28;20003;-30
2023/03/07 14:37:20;;;;;;;;;;;;;;;;;;5094993;28;19920;-30
2023/03/07 14:39:46;;;;;;;;;;;;;;;;;;5095159;28;19981;-29
2023/03/07 14:42:12;;;;;;;;;;;;;;;;;;5093703;28;19908;-27
2023/03/07 14:44:38;;;;;;;;;;;;;;;;;;5094729;28;19908;-28
2023/03/07 14:47:04;;;;;;;;;;;;;;;;;;5094092;28;20318;-26
2023/03/07 14:49:30;;;;;;;;;;;;;;;;;;5093608;28;19908;-27
2023/03/07 14:51:55;;;;;;;;;;;;;;;;;;5094488;28;19961;-26
2023/03/07 14:54:24;;;;;;;;;;;;;;;;;;5094525;28;19912;-25
2023/03/07 14:56:50;;;;;;;;;;;;;;;;;;5094459;28;19912;-28
2023/03/07 14:59:16;;;;;;;;;;;;;;;;;;5093324;28;19908;-28
2023/03/07 15:01:42;;;;;;;;;;;;;;;;;;5094448;28;20007;-30
2023/03/07 15:04:07;;;;;;;;;;;;;;;;;;5094361;28;19912;-27
2023/03/07 15:06:33;;;;;;;;;;;;;;;;;;5094532;28;20335;-28
2023/03/07 15:09:00;;;;;;;;;;;;;;;;;;5094409;28;20315;-24
2023/03/07 15:11:26;;;;;;;;;;;;;;;;;;5094203;28;20307;-28
2023/03/07 15:13:52;;;;;;;;;;;;;;;;;;5093959;28;19908;-26
2023/03/07 15:16:18;;;;;;;;;;;;;;;;;;5093908;28;19977;-29
2023/03/07 15:18:44;;;;;;;;;;;;;;;;;;5094218;28;19923;-31
2023/03/07 15:21:10;;;;;;;;;;;;;;;;;;5094184;28;20198;-34
2023/03/07 15:23:36;;;;;;;;;;;;;;;;;;5094363;28;19968;-28
2023/03/07 15:26:05;;;;;;;;;;;;;;;;;;5094289;28;19968;-28
2023/03/07 15:28:31;;;;;;;;;;;;;;;;;;5094180;28;20235;-27
2023/03/07 15:30:57;;;;;;;;;;;;;;;;;;5094527;28;19908;-28
2023/03/07 15:33:23;;;;;;;;;;;;;;;;;;5094386;28;19908;-29
2023/03/07 15:35:49;;;;;;;;;;;;;;;;;;5094140;28;20258;-30
2023/03/07 15:38:15;;;;;;;;;;;;;;;;;;5094236;28;19908;-27
2023/03/07 15:40:42;;;;;;;;;;;;;;;;;;5094276;28;20262;-30
2023/03/07 15:43:08;;;;;;;;;;;;;;;;;;5093874;28;20323;-29
2023/03/07 15:45:33;;;;;;;;;;;;;;;;;;5094144;28;19908;-30
2023/03/07 15:47:59;;;;;;;;;;;;;;;;;;5093879;28;19909;-27
2023/03/07 15:50:25;;;;;;;;;;;;;;;;;;5093891;28;19908;-26
2023/03/07 15:52:51;;;;;;;;;;;;;;;;;;5093829;28;20381;-29
2023/03/07 15:55:17;;;;;;;;;;;;;;;;;;5093762;28;19957;-24
2023/03/07 15:57:43;;;;;;;;;;;;;;;;;;5094006;28;19908;-25
2023/03/07 16:00:10;;;;;;;;;;;;;;;;;;5094264;28;19998;-28
2023/03/07 16:02:36;;;;;;;;;;;;;;;;;;5094703;28;19908;-28
2023/03/07 16:05:02;;;;;;;;;;;;;;;;;;5098104;28;20329;-28
2023/03/07 16:07:28;;;;;;;;;;;;;;;;;;5097465;28;19908;-28
2023/03/07 16:09:54;;;;;;;;;;;;;;;;;;5097424;28;19992;-33
2023/03/07 16:12:20;;;;;;;;;;;;;;;;;;5097280;28;19916;-25
2023/03/07 16:14:46;;;;;;;;;;;;;;;;;;5097862;28;20102;-30
2023/03/07 16:17:12;;;;;;;;;;;;;;;;;;5096464;28;19920;-26
2023/03/07 16:19:37;;;;;;;;;;;;;;;;;;5097171;28;20351;-29
2023/03/07 16:22:03;;;;;;;;;;;;;;;;;;5096622;28;20358;-28
2023/03/07 16:24:29;;;;;;;;;;;;;;;;;;5096548;28;19989;-26
2023/03/07 16:26:56;;;;;;;;;;;;;;;;;;5095459;28;20410;-29
2023/03/07 16:29:22;;;;;;;;;;;;;;;;;;5095503;28;19964;-28
2023/03/07 16:31:48;;;;;;;;;;;;;;;;;;5096374;28;19959;-29
2023/03/07 16:34:14;;;;;;;;;;;;;;;;;;5096551;28;19912;-27
2023/03/07 16:36:41;;;;;;;;;;;;;;;;;;5096779;28;20076;-30